Time;durP1;ratioP1;P1;durP2;ratioP2;P2;SDS_P1;SDS_P2;PMS_P1;PMS_P2;Temp;Humidity;BMP_temperature;BMP_pressure;BME280_temperature;BME280_humidity;BME280_pressure;Samples;Min_cycle;Max_cycle;Signal;HPM_P1;HPM_P2
2022/09/29 05:02:43;;;;;;;8.60;4.78;;;7.00;99.90;;;;;;6191101;23;20289;-73
2022/09/29 05:05:11;;;;;;;8.43;4.78;;;7.00;99.90;;;;;;6255737;23;20004;-73
2022/09/29 05:07:40;;;;;;;7.90;4.05;;;7.00;99.90;;;;;;6254704;23;19996;-74
2022/09/29 05:10:07;;;;;;;10.43;4.63;;;7.00;99.90;;;;;;6254454;23;20027;-74
2022/09/29 05:12:36;;;;;;;7.30;4.72;;;7.00;99.90;;;;;;6254725;23;20227;-75
2022/09/29 05:15:03;;;;;;;9.63;4.82;;;7.00;99.90;;;;;;6256771;23;20051;-73
2022/09/29 05:17:29;;;;;;;8.15;4.35;;;6.90;99.90;;;;;;6254318;23;20015;-75
2022/09/29 05:19:55;;;;;;;9.82;5.00;;;6.90;99.90;;;;;;6254703;23;20231;-73
2022/09/29 05:22:23;;;;;;;10.02;5.25;;;6.90;99.90;;;;;;6254230;23;20063;-74
2022/09/29 05:24:50;;;;;;;10.07;5.07;;;6.90;99.90;;;;;;6228427;23;20011;-73
2022/09/29 05:27:16;;;;;;;7.55;4.55;;;6.90;99.90;;;;;;6254312;23;19996;-75
2022/09/29 05:29:42;;;;;;;9.25;4.57;;;6.90;99.90;;;;;;6254667;23;20000;-74
2022/09/29 05:32:07;;;;;;;9.02;5.07;;;7.00;99.90;;;;;;6255147;23;20210;-74
2022/09/29 05:34:33;;;;;;;8.65;4.65;;;7.10;99.90;;;;;;6252948;23;20016;-75
2022/09/29 05:36:59;;;;;;;8.00;4.22;;;7.20;99.90;;;;;;6254343;23;20194;-73
2022/09/29 05:39:25;;;;;;;7.18;4.43;;;7.20;99.90;;;;;;6254489;23;19999;-74
2022/09/29 05:41:50;;;;;;;7.05;4.47;;;7.20;99.90;;;;;;6254235;23;20052;-73
2022/09/29 05:44:16;;;;;;;9.88;4.68;;;7.30;99.90;;;;;;6254188;23;20000;-72
2022/09/29 05:46:42;;;;;;;8.10;4.45;;;7.30;99.90;;;;;;6254856;23;20068;-73
2022/09/29 05:49:08;;;;;;;8.98;4.57;;;7.30;99.90;;;;;;6254360;23;20324;-73
2022/09/29 05:51:34;;;;;;;8.48;4.47;;;7.40;99.90;;;;;;6253817;23;20181;-76
2022/09/29 05:54:00;;;;;;;8.65;4.90;;;7.40;99.90;;;;;;6254228;23;20000;-73
2022/09/29 05:56:26;;;;;;;8.95;5.20;;;7.50;99.90;;;;;;6251466;23;20000;-73
2022/09/29 05:58:53;;;;;;;8.50;5.13;;;7.60;99.90;;;;;;6227822;23;20289;-75
2022/09/29 06:01:20;;;;;;;9.85;5.07;;;7.60;99.90;;;;;;6255300;22;20004;-75
2022/09/29 06:03:46;;;;;;;9.48;4.68;;;7.60;99.90;;;;;;6285149;22;20097;-73
2022/09/29 06:06:18;;;;;;;8.18;4.60;;;7.70;99.90;;;;;;6284762;22;20003;-73
2022/09/29 06:08:45;;;;;;;9.65;5.00;;;7.70;99.90;;;;;;6285083;22;20008;-73
2022/09/29 06:11:15;;;;;;;7.57;4.90;;;7.80;99.90;;;;;;6284966;22;20072;-73
2022/09/29 06:13:43;;;;;;;8.25;4.88;;;7.90;99.90;;;;;;6284652;22;20050;-73
2022/09/29 06:16:10;;;;;;;8.55;5.10;;;7.90;99.90;;;;;;6283625;22;20015;-74
2022/09/29 06:18:36;;;;;;;9.50;4.90;;;8.00;99.90;;;;;;6257557;22;20006;-73
2022/09/29 06:21:06;;;;;;;9.95;5.28;;;8.10;99.90;;;;;;6284897;22;20011;-74
2022/09/29 06:23:39;;;;;;;11.98;4.93;;;8.10;99.90;;;;;;6281372;22;19999;-75
2022/09/29 06:26:08;;;;;;;12.20;5.10;;;8.20;99.90;;;;;;6282153;22;20004;-75
2022/09/29 06:28:34;;;;;;;9.15;5.10;;;8.20;99.90;;;;;;6256162;22;19987;-75
2022/09/29 06:31:05;;;;;;;8.55;4.53;;;8.40;99.90;;;;;;6231774;22;20366;-75
2022/09/29 06:33:32;;;;;;;7.72;4.07;;;8.40;99.90;;;;;;6282096;22;20015;-75
2022/09/29 06:38:47;;;;;;;6.70;3.80;;;8.70;99.90;;;;;;6261374;22;20012;-75
2022/09/29 06:41:15;;;;;;;5.40;3.42;;;8.90;99.90;;;;;;6261140;22;20316;-74
2022/09/29 06:43:41;;;;;;;7.30;3.33;;;8.90;99.90;;;;;;6258762;22;20055;-76
2022/09/29 06:46:07;;;;;;;7.22;3.75;;;8.90;99.90;;;;;;6256545;22;20007;-76
2022/09/29 06:48:33;;;;;;;6.85;3.90;;;9.00;99.90;;;;;;6256070;22;20008;-76
2022/09/29 06:50:59;;;;;;;7.60;3.40;;;9.00;99.90;;;;;;6256991;22;20031;-76
2022/09/29 06:53:25;;;;;;;5.53;3.33;;;9.10;99.90;;;;;;6231074;22;20011;-78
2022/09/29 06:55:53;;;;;;;7.18;2.90;;;9.20;99.90;;;;;;6255916;22;20185;-76
2022/09/29 06:58:18;;;;;;;6.38;3.58;;;9.30;99.90;;;;;;6283970;22;20125;-76
2022/09/29 07:00:44;;;;;;;6.07;3.50;;;9.50;99.90;;;;;;6231399;22;20197;-77
2022/09/29 07:03:13;;;;;;;6.72;4.28;;;9.60;99.90;;;;;;6283126;22;20293;-76
2022/09/29 07:05:39;;;;;;;7.15;3.95;;;9.60;99.90;;;;;;6255926;22;20025;-75
2022/09/29 07:08:05;;;;;;;6.13;3.38;;;9.80;99.90;;;;;;6283242;22;20000;-74
2022/09/29 07:10:30;;;;;;;5.97;3.20;;;9.80;99.90;;;;;;6281650;22;20011;-75
2022/09/29 07:12:56;;;;;;;5.78;3.50;;;9.80;99.90;;;;;;6231261;22;20022;-75
2022/09/29 07:15:30;;;;;;;5.85;3.50;;;9.90;99.90;;;;;;6283353;22;20000;-76
2022/09/29 07:18:00;;;;;;;5.35;3.22;;;10.00;99.90;;;;;;6231172;22;20004;-76
2022/09/29 07:20:27;;;;;;;7.00;3.95;;;10.10;99.90;;;;;;6256034;22;20284;-76
2022/09/29 07:22:53;;;;;;;6.25;3.78;;;10.20;99.90;;;;;;6255933;22;20308;-75
2022/09/29 07:25:19;;;;;;;6.00;3.65;;;10.30;99.90;;;;;;6255612;22;20019;-77
2022/09/29 07:27:46;;;;;;;7.25;3.33;;;10.40;99.90;;;;;;6284056;22;20006;-78
2022/09/29 07:30:13;;;;;;;6.15;3.53;;;10.40;99.90;;;;;;6257934;22;20014;-76
2022/09/29 07:32:39;;;;;;;8.30;5.38;;;10.60;99.90;;;;;;6256624;22;20647;-77
2022/09/29 07:35:08;;;;;;;17.95;10.35;;;10.70;99.90;;;;;;6284732;22;19984;-74
2022/09/29 07:37:33;;;;;;;9.55;6.00;;;10.80;99.90;;;;;;6284048;22;20034;-77
2022/09/29 07:39:59;;;;;;;9.45;5.05;;;11.00;99.90;;;;;;6284227;22;20003;-76
2022/09/29 07:42:27;;;;;;;6.28;3.97;;;11.10;99.90;;;;;;6232324;22;20034;-75
2022/09/29 07:44:55;;;;;;;7.43;2.90;;;11.20;99.90;;;;;;6258065;22;19992;-75
2022/09/29 07:47:22;;;;;;;8.05;4.13;;;11.30;99.90;;;;;;6231060;22;20080;-74
2022/09/29 07:49:48;;;;;;;7.78;4.57;;;11.30;99.90;;;;;;6284854;22;20135;-76
2022/09/29 07:52:16;;;;;;;7.88;5.13;;;11.40;99.90;;;;;;6283141;22;20003;-76
2022/09/29 07:54:42;;;;;;;8.60;5.63;;;11.50;99.90;;;;;;6257051;22;20000;-76
2022/09/29 07:57:08;;;;;;;10.07;5.95;;;11.60;99.90;;;;;;6284220;22;19987;-74
2022/09/29 07:59:34;;;;;;;9.73;3.83;;;11.70;99.90;;;;;;6256942;22;20008;-74
2022/09/29 08:02:01;;;;;;;6.07;2.97;;;11.80;99.90;;;;;;6256043;22;20023;-75
2022/09/29 08:04:27;;;;;;;5.00;2.85;;;11.90;99.90;;;;;;6256815;22;20004;-76
2022/09/29 08:06:53;;;;;;;6.28;3.10;;;12.10;99.90;;;;;;6257109;22;20008;-76
2022/09/29 08:09:18;;;;;;;7.65;2.83;;;12.20;99.90;;;;;;6282341;22;20038;-75
2022/09/29 08:11:47;;;;;;;5.00;2.80;;;12.40;99.90;;;;;;6257533;22;19999;-77
2022/09/29 08:14:13;;;;;;;6.70;2.90;;;12.60;99.90;;;;;;6260059;22;20059;-74
2022/09/29 08:16:39;;;;;;;8.05;2.95;;;12.70;99.90;;;;;;6294794;22;20008;-74
2022/09/29 08:19:05;;;;;;;4.88;3.13;;;12.70;99.90;;;;;;6266268;22;20003;-75
2022/09/29 08:21:35;;;;;;;4.93;3.08;;;12.80;99.90;;;;;;6291540;22;19995;-75
2022/09/29 08:24:05;;;;;;;5.65;2.65;;;13.00;99.90;;;;;;6283463;22;20212;-74
2022/09/29 08:26:34;;;;;;;6.55;2.55;;;13.00;99.90;;;;;;6255819;22;20036;-75
2022/09/29 08:29:01;;;;;;;5.65;2.88;;;13.20;99.90;;;;;;6256707;22;20000;-77
2022/09/29 08:31:28;;;;;;;5.85;2.70;;;13.30;99.90;;;;;;6231625;22;20072;-76
2022/09/29 08:33:57;;;;;;;6.30;2.72;;;13.40;99.90;;;;;;6257432;22;20030;-79
2022/09/29 08:36:23;;;;;;;7.22;2.90;;;13.70;99.90;;;;;;6283133;22;20209;-76
2022/09/29 08:38:52;;;;;;;6.30;2.83;;;13.70;99.90;;;;;;6282514;22;20061;-78
2022/09/29 08:41:41;;;;;;;7.50;2.88;;;13.90;99.90;;;;;;6284230;22;20015;-78
2022/09/29 08:44:18;;;;;;;7.43;2.58;;;13.80;99.90;;;;;;6283527;22;20003;-78
2022/09/29 08:46:48;;;;;;;10.82;4.97;;;13.90;99.90;;;;;;6256007;22;20031;-76
2022/09/29 08:49:31;;;;;;;5.47;3.05;;;14.00;99.90;;;;;;6283728;22;20011;-75
2022/09/29 08:52:12;;;;;;;5.18;2.95;;;14.20;99.90;;;;;;6283589;22;20021;-76
2022/09/29 08:54:41;;;;;;;5.80;2.67;;;14.10;99.90;;;;;;6257005;22;20026;-75
2022/09/29 08:57:19;;;;;;;6.13;2.40;;;14.10;99.90;;;;;;6283877;22;20277;-76
2022/09/29 08:59:58;;;;;;;7.38;2.83;;;14.10;99.90;;;;;;6282069;22;20032;-76
2022/09/29 09:02:38;;;;;;;4.88;2.63;;;14.30;99.90;;;;;;6283581;22;20056;-76
2022/09/29 09:05:48;;;;;;;5.35;2.47;;;14.40;99.90;;;;;;6284080;22;20007;-76
2022/09/29 09:08:20;;;;;;;7.13;2.92;;;14.60;99.90;;;;;;6284132;22;20205;-75
2022/09/29 09:11:00;;;;;;;6.78;3.03;;;14.70;99.90;;;;;;6256191;22;20019;-75
2022/09/29 09:13:32;;;;;;;3.92;2.50;;;14.90;99.90;;;;;;6281802;22;20015;-77
2022/09/29 09:16:36;;;;;;;6.13;2.60;;;14.90;99.90;;;;;;6283534;22;20000;-77
2022/09/29 09:19:25;;;;;;;7.00;2.97;;;15.10;99.90;;;;;;6265967;22;19999;-76
2022/09/29 09:22:09;;;;;;;16.35;10.77;;;15.10;99.90;;;;;;6283205;22;20003;-75
2022/09/29 09:25:00;;;;;;;6.68;3.10;;;15.30;99.90;;;;;;6283521;22;20388;-76
2022/09/29 09:27:32;;;;;;;6.55;2.60;;;15.20;99.60;;;;;;6282681;22;20011;-76
2022/09/29 09:30:29;;;;;;;5.80;3.03;;;15.30;99.00;;;;;;6283259;22;20300;-78
2022/09/29 09:33:00;;;;;;;8.25;2.53;;;15.30;99.10;;;;;;6279242;22;20022;-76
2022/09/29 09:35:52;;;;;;;6.43;2.70;;;15.40;98.70;;;;;;6281853;22;20027;-75
2022/09/29 09:38:24;;;;;;;6.97;2.58;;;15.50;99.00;;;;;;6256406;22;20003;-76
2022/09/29 09:40:54;;;;;;;7.43;2.65;;;15.30;98.30;;;;;;6284838;22;19999;-76
2022/09/29 09:43:32;;;;;;;5.43;2.30;;;15.10;99.20;;;;;;6268686;22;20015;-76
2022/09/29 09:46:19;;;;;;;5.78;2.75;;;15.10;98.70;;;;;;6300069;22;20043;-75
2022/09/29 09:49:12;;;;;;;5.57;2.50;;;15.30;98.90;;;;;;6299065;22;20134;-75
2022/09/29 09:52:09;;;;;;;5.63;2.25;;;15.60;98.20;;;;;;6299582;22;20007;-75
2022/09/29 09:54:48;;;;;;;6.05;2.28;;;15.50;97.90;;;;;;6298679;22;20044;-74
2022/09/29 09:57:48;;;;;;;4.68;1.88;;;15.50;97.80;;;;;;6300583;22;20008;-75
2022/09/29 10:00:37;;;;;;;3.40;1.77;;;15.80;98.10;;;;;;6297752;22;20052;-75
2022/09/29 10:03:06;;;;;;;5.40;2.72;;;15.80;97.50;;;;;;6300181;22;20027;-75
2022/09/29 10:05:37;;;;;;;5.40;2.33;;;15.50;97.70;;;;;;6265265;22;20010;-76
2022/09/29 10:08:28;;;;;;;5.18;2.25;;;15.50;97.60;;;;;;6284947;22;20036;-75
2022/09/29 10:11:04;;;;;;;18.58;14.45;;;15.80;98.00;;;;;;6286455;22;20027;-75
2022/09/29 10:13:30;;;;;;;5.57;3.40;;;16.20;96.80;;;;;;6285673;22;20010;-75
2022/09/29 10:16:14;;;;;;;5.55;2.40;;;16.30;96.20;;;;;;6287367;22;19991;-77
2022/09/29 10:18:53;;;;;;;3.97;2.33;;;16.50;96.20;;;;;;6286225;22;19999;-76
2022/09/29 10:21:28;;;;;;;3.58;2.08;;;16.80;96.10;;;;;;6286862;22;20061;-75
2022/09/29 10:24:08;;;;;;;4.13;1.90;;;16.90;95.60;;;;;;6260331;22;20000;-73
2022/09/29 10:26:50;;;;;;;4.40;2.22;;;16.90;95.20;;;;;;6283046;22;20008;-75
2022/09/29 10:29:48;;;;;;;6.95;2.70;;;16.90;95.10;;;;;;6283455;22;20011;-77
2022/09/29 10:32:36;;;;;;;;;;;16.90;94.80;;;;;;6283696;22;20009;-76
2022/09/29 10:35:23;;;;;;;12.25;9.75;;;17.10;94.50;;;;;;6257645;22;19903;-76
2022/09/29 10:38:03;;;;;;;5.40;2.80;;;17.30;94.60;;;;;;6283383;22;20312;-75
2022/09/29 10:40:29;;;;;;;5.60;2.10;;;17.70;93.50;;;;;;6282787;22;20284;-77
2022/09/29 10:43:06;;;;;;;12.80;2.53;;;17.80;92.80;;;;;;6283661;22;20000;-75
2022/09/29 10:45:49;;;;;;;6.28;2.33;;;17.90;92.60;;;;;;6283352;22;20031;-75
2022/09/29 10:48:18;;;;;;;6.28;2.08;;;17.90;92.40;;;;;;6230977;22;20035;-76
2022/09/29 10:50:52;;;;;;;5.43;2.38;;;18.10;92.50;;;;;;6230632;22;20227;-75
2022/09/29 10:53:37;;;;;;;4.50;1.48;;;18.30;91.90;;;;;;6283215;22;20353;-76
2022/09/29 10:56:47;;;;;;;3.40;1.40;;;18.40;90.90;;;;;;6283644;22;20004;-75
2022/09/29 10:59:16;;;;;;;5.47;1.38;;;18.70;91.10;;;;;;6130448;23;20041;-77
2022/09/29 11:01:59;;;;;;;4.45;1.80;;;19.30;88.70;;;;;;6231241;22;20074;-74
2022/09/29 11:04:36;;;;;;;3.47;1.40;;;19.30;88.60;;;;;;6258963;22;20008;-76
2022/09/29 11:07:20;;;;;;;3.47;1.20;;;19.40;88.10;;;;;;6285145;22;20081;-75
2022/09/29 11:09:50;;;;;;;4.30;1.35;;;19.70;87.90;;;;;;6282128;22;20016;-73
2022/09/29 11:12:38;;;;;;;2.67;1.10;;;19.90;86.30;;;;;;6255624;22;20011;-75
2022/09/29 11:15:42;;;;;;;;;;;20.50;84.50;;;;;;6284821;22;20011;-75
2022/09/29 11:18:50;;;;;;;4.15;1.33;;;20.90;82.10;;;;;;6190796;23;20090;-75
2022/09/29 11:21:37;;;;;;;3.92;1.30;;;20.40;80.50;;;;;;6147290;23;20173;-75
2022/09/29 11:24:40;;;;;;;3.08;1.45;;;20.10;81.90;;;;;;6190834;23;20096;-74
2022/09/29 11:27:46;;;;;;;6.15;1.20;;;19.90;81.70;;;;;;6268803;22;20003;-75
2022/09/29 11:30:49;;;;;;;3.78;1.52;;;19.80;81.20;;;;;;6284407;22;20038;-75
2022/09/29 11:33:58;;;;;;;3.67;1.65;;;19.40;83.80;;;;;;6278817;22;20020;-73
2022/09/29 11:36:59;;;;;;;5.32;1.92;;;19.00;85.60;;;;;;6282918;22;20011;-73
2022/09/29 11:40:10;;;;;;;4.75;1.80;;;18.70;85.50;;;;;;6255796;22;20049;-74
2022/09/29 11:43:04;;;;;;;5.13;1.85;;;18.20;86.70;;;;;;6213131;22;20003;-74
2022/09/29 11:46:01;;;;;;;3.45;1.40;;;18.10;86.30;;;;;;6283058;22;20018;-74
2022/09/29 11:49:23;;;;;;;4.78;1.40;;;18.60;87.10;;;;;;6281435;22;20034;-73
2022/09/29 11:52:14;;;;;;;4.65;1.42;;;18.80;86.20;;;;;;6130415;23;20107;-75
2022/09/29 11:54:58;;;;;;;8.60;2.00;;;19.10;84.70;;;;;;6282155;22;20038;-74
2022/09/29 11:58:06;;;;;;;4.10;1.70;;;19.70;82.70;;;;;;6284268;22;20004;-74
2022/09/29 12:00:45;;;;;;;4.88;1.27;;;20.20;79.30;;;;;;6282636;22;19999;-74
2022/09/29 12:03:36;;;;;;;5.25;1.75;;;20.60;77.90;;;;;;6283202;22;20313;-74
2022/09/29 12:06:51;;;;;;;8.38;3.67;;;20.50;76.50;;;;;;6283158;22;20008;-74
2022/09/29 12:09:51;;;;;;;4.80;1.60;;;20.50;76.90;;;;;;6129914;23;20252;-73
2022/09/29 12:12:55;;;;;;;3.70;1.30;;;20.10;77.20;;;;;;6127473;23;20164;-74
2022/09/29 12:15:35;;;;;;;5.38;1.90;;;20.10;76.50;;;;;;6282299;22;20029;-74
2022/09/29 12:18:10;;;;;;;3.00;0.95;;;20.00;77.80;;;;;;6283072;22;20082;-74
2022/09/29 12:20:48;;;;;;;4.07;1.42;;;20.40;76.60;;;;;;6283279;22;20175;-75
2022/09/29 12:23:23;;;;;;;3.67;1.20;;;20.80;76.80;;;;;;6282652;22;20011;-78
2022/09/29 12:26:25;;;;;;;3.92;0.90;;;21.00;72.70;;;;;;6280644;22;20012;-76
2022/09/29 12:29:31;;;;;;;3.22;0.93;;;21.00;73.10;;;;;;6255658;22;20012;-75
2022/09/29 12:32:09;;;;;;;3.78;1.05;;;21.30;72.20;;;;;;6283259;22;20011;-75
2022/09/29 12:35:05;;;;;;;3.33;0.95;;;21.20;72.40;;;;;;6279697;22;20277;-76
2022/09/29 12:37:46;;;;;;;1.90;0.73;;;20.90;72.40;;;;;;6295248;22;20012;-79
2022/09/29 12:40:32;;;;;;;2.80;0.85;;;21.20;74.30;;;;;;6298438;22;20023;-80
2022/09/29 12:43:18;;;;;;;3.50;0.82;;;21.60;73.10;;;;;;6270409;22;20217;-78
2022/09/29 12:46:19;;;;;;;3.03;1.20;;;21.50;75.40;;;;;;6255837;22;20046;-78
2022/09/29 12:49:03;;;;;;;3.17;1.00;;;21.60;72.10;;;;;;6130866;23;20013;-78
2022/09/29 12:51:46;;;;;;;2.83;0.80;;;21.50;71.20;;;;;;6129794;23;20102;-78
2022/09/29 12:54:33;;;;;;;3.70;1.17;;;21.40;70.80;;;;;;6130184;23;20006;-77
2022/09/29 12:57:14;;;;;;;5.30;1.33;;;21.30;71.30;;;;;;6184484;22;20004;-76
2022/09/29 12:59:49;;;;;;;3.75;1.15;;;20.60;70.50;;;;;;6255613;22;20099;-78
2022/09/29 13:02:38;;;;;;;2.78;1.00;;;20.50;73.30;;;;;;6281380;22;20018;-76
2022/09/29 13:05:25;;;;;;;3.92;1.08;;;20.20;72.20;;;;;;6279471;22;20007;-79
2022/09/29 13:08:28;;;;;;;3.17;1.10;;;19.90;72.90;;;;;;6259264;22;20004;-76
2022/09/29 13:11:19;;;;;;;3.30;1.00;;;19.70;75.50;;;;;;6285893;22;20018;-75
2022/09/29 13:14:34;;;;;;;5.93;1.30;;;19.50;77.50;;;;;;6256711;22;19999;-76
2022/09/29 13:17:26;;;;;;;5.00;1.10;;;19.00;74.30;;;;;;6282177;22;20059;-75
2022/09/29 13:20:17;;;;;;;4.85;1.00;;;18.70;80.20;;;;;;6165946;22;20008;-76
2022/09/29 13:23:13;;;;;;;4.07;1.00;;;18.60;78.00;;;;;;6256637;22;20067;-75
2022/09/29 13:26:03;;;;;;;4.60;1.13;;;18.40;80.00;;;;;;6282932;22;20007;-77
2022/09/29 13:29:01;;;;;;;3.90;1.10;;;18.30;77.80;;;;;;6257750;22;20000;-76
2022/09/29 13:31:42;;;;;;;3.13;1.05;;;18.10;76.70;;;;;;6282017;22;20214;-75
2022/09/29 13:34:54;;;;;;;4.30;0.93;;;17.90;80.00;;;;;;6258036;22;20019;-75
2022/09/29 13:37:44;;;;;;;2.78;1.00;;;17.60;81.50;;;;;;6284060;22;20285;-74
2022/09/29 13:40:30;;;;;;;3.17;1.00;;;17.50;79.80;;;;;;6283216;22;20015;-75
2022/09/29 13:46:48;;;;;;;4.13;1.00;;;17.30;81.40;;;;;;6251333;22;20061;-76
2022/09/29 13:49:20;;;;;;;3.38;1.20;;;17.20;79.30;;;;;;6256749;22;20135;-74
2022/09/29 13:51:51;;;;;;;3.55;1.00;;;17.20;81.50;;;;;;6256725;22;20277;-75
2022/09/29 13:54:20;;;;;;;3.08;1.10;;;17.20;80.10;;;;;;6190252;23;20001;-76
2022/09/29 13:57:21;;;;;;;3.05;1.20;;;17.20;79.50;;;;;;6140303;23;20247;-76
2022/09/29 13:59:56;;;;;;;2.85;1.40;;;17.10;82.20;;;;;;6140455;23;20024;-75
2022/09/29 14:02:52;;;;;;;6.73;1.77;;;17.30;81.80;;;;;;6129397;23;20217;-76
2022/09/29 14:05:38;;;;;;;5.45;1.30;;;17.30;81.00;;;;;;6160470;23;20196;-76
2022/09/29 14:08:54;;;;;;;5.55;1.48;;;17.10;81.20;;;;;;6161057;23;20219;-76
2022/09/29 14:11:51;;;;;;;3.92;1.02;;;16.90;82.10;;;;;;6161601;23;20037;-76
2022/09/29 14:14:25;;;;;;;2.47;0.98;;;16.90;81.40;;;;;;6162024;23;20085;-76
2022/09/29 14:17:27;;;;;;;3.08;0.95;;;16.80;81.70;;;;;;6161822;23;20001;-76
2022/09/29 14:20:12;;;;;;;5.10;1.30;;;16.80;84.30;;;;;;6160923;23;20204;-77
2022/09/29 14:22:38;;;;;;;3.53;1.27;;;16.60;82.10;;;;;;6160872;23;20005;-76
2022/09/29 14:25:09;;;;;;;4.47;1.23;;;16.60;84.00;;;;;;6199002;23;20225;-75
2022/09/29 14:27:48;;;;;;;4.07;1.10;;;16.50;83.40;;;;;;6253195;23;20008;-77
2022/09/29 14:30:20;;;;;;;5.05;1.10;;;16.30;84.30;;;;;;6253792;23;20004;-76
2022/09/29 14:32:50;;;;;;;3.00;1.20;;;16.20;84.90;;;;;;6253215;23;20004;-76
2022/09/29 14:35:55;;;;;;;4.05;1.60;;;16.10;85.50;;;;;;6227142;23;20032;-76
2022/09/29 14:38:41;;;;;;;2.63;1.10;;;16.10;86.00;;;;;;6154482;23;20019;-76
2022/09/29 14:41:07;;;;;;;4.28;1.20;;;16.10;86.30;;;;;;6253740;23;20000;-75
2022/09/29 14:43:49;;;;;;;2.53;1.20;;;16.10;86.70;;;;;;6229576;23;20282;-76
2022/09/29 14:53:16;;;;;;;4.00;1.27;;;16.10;85.50;;;;;;6226783;23;20007;-75
2022/09/29 14:59:11;;;;;;;5.47;1.50;;;16.00;87.70;;;;;;6246798;23;20463;-79
2022/09/29 15:01:55;;;;;;;5.80;1.63;;;16.00;87.60;;;;;;6228798;22;20498;-75
2022/09/29 15:04:35;;;;;;;5.35;1.30;;;16.00;87.70;;;;;;6257230;22;20003;-77
2022/09/29 15:07:03;;;;;;;3.88;1.30;;;16.00;88.90;;;;;;6232190;22;20289;-76
2022/09/29 15:09:37;;;;;;;3.53;1.30;;;16.00;89.20;;;;;;6257587;22;20023;-76
2022/09/29 15:12:14;;;;;;;3.30;1.27;;;15.90;90.00;;;;;;6284479;22;20286;-77
2022/09/29 15:14:40;;;;;;;5.47;1.70;;;16.00;89.70;;;;;;6284186;22;19999;-76
2022/09/29 15:17:31;;;;;;;5.28;1.30;;;15.90;89.90;;;;;;6257662;22;20059;-76
2022/09/29 15:20:35;;;;;;;3.58;1.70;;;15.90;90.80;;;;;;6256441;22;20008;-76
2022/09/29 15:23:26;;;;;;;3.55;1.58;;;15.90;90.10;;;;;;6284298;22;20003;-76
2022/09/29 15:26:16;;;;;;;5.32;1.70;;;16.00;90.00;;;;;;6256615;22;20018;-76
2022/09/29 15:28:45;;;;;;;3.15;1.40;;;15.90;90.30;;;;;;6242574;22;20347;-75
2022/09/29 15:34:38;;;;;;;4.35;1.25;;;15.90;89.90;;;;;;6283294;22;20004;-74
2022/09/29 15:37:04;;;;;;;4.50;1.20;;;15.90;89.30;;;;;;6279943;22;20278;-74
2022/09/29 15:39:47;;;;;;;4.00;1.23;;;16.00;88.50;;;;;;6284336;22;20004;-74
2022/09/29 15:42:42;;;;;;;4.30;1.50;;;16.00;88.30;;;;;;6284565;22;20030;-75
2022/09/29 15:45:51;;;;;;;3.75;1.23;;;15.90;88.30;;;;;;6276020;22;20293;-74
2022/09/29 15:48:58;;;;;;;4.18;1.35;;;15.80;88.30;;;;;;6283565;22;20047;-76
2022/09/29 15:51:27;;;;;;;4.32;1.20;;;15.70;89.10;;;;;;6227146;22;20057;-76
2022/09/29 15:53:54;;;;;;;3.72;1.30;;;15.70;89.50;;;;;;6285359;22;20384;-74
2022/09/29 15:57:41;;;;;;;3.72;1.40;;;15.60;90.10;;;;;;6286173;22;20042;-75
2022/09/29 16:00:02;;;;;;;5.03;1.30;;;15.70;90.20;;;;;;6282706;22;20332;-75
2022/09/29 16:02:44;;;;;;;3.92;1.23;;;15.70;90.00;;;;;;6276807;22;20071;-75
2022/09/29 16:05:19;;;;;;;4.30;1.00;;;15.70;90.10;;;;;;6255481;23;20000;-75
2022/09/29 16:08:30;;;;;;;4.43;1.17;;;15.70;90.40;;;;;;6254290;23;20049;-75
2022/09/29 16:11:12;;;;;;;4.65;1.58;;;15.60;90.40;;;;;;6254474;22;20058;-77
2022/09/29 16:13:51;;;;;;;5.10;1.40;;;15.50;90.40;;;;;;6229163;23;20220;-76
2022/09/29 16:16:26;;;;;;;4.15;1.33;;;15.50;90.60;;;;;;6229073;23;20008;-77
2022/09/29 16:19:01;;;;;;;3.70;1.08;;;15.40;90.70;;;;;;6255523;22;20001;-77
2022/09/29 16:21:34;;;;;;;4.40;1.27;;;15.30;90.70;;;;;;6245922;23;20008;-77
2022/09/29 16:24:22;;;;;;;2.97;1.08;;;15.20;91.00;;;;;;6277909;22;20071;-76
2022/09/29 16:26:54;;;;;;;4.82;1.70;;;15.10;90.80;;;;;;6253689;23;20075;-74
2022/09/29 16:29:36;;;;;;;6.07;1.95;;;14.90;91.00;;;;;;6254799;23;20046;-75
2022/09/29 16:32:34;;;;;;;6.47;1.40;;;14.80;91.10;;;;;;6254269;22;20330;-74
2022/09/29 16:35:35;;;;;;;6.60;1.80;;;14.70;91.50;;;;;;6229119;23;20290;-74
2022/09/29 16:38:08;;;;;;;3.42;1.50;;;14.50;91.50;;;;;;6234118;23;20011;-75
2022/09/29 16:40:40;;;;;;;4.82;1.55;;;14.40;91.80;;;;;;6254969;23;20215;-76
2022/09/29 16:43:30;;;;;;;7.25;1.60;;;14.30;91.30;;;;;;6255219;23;20046;-74
2022/09/29 16:46:05;;;;;;;3.65;1.45;;;14.20;91.80;;;;;;6254386;23;20000;-76
2022/09/29 16:48:40;;;;;;;6.68;3.75;;;14.10;92.10;;;;;;6252744;23;20004;-75
2022/09/29 16:51:16;;;;;;;11.85;6.47;;;14.00;92.70;;;;;;6253175;23;20004;-75
2022/09/29 16:53:43;;;;;;;11.85;7.93;;;14.00;92.90;;;;;;6254238;23;20001;-76
2022/09/29 16:56:34;;;;;;;6.63;2.67;;;13.90;93.10;;;;;;6254378;23;20050;-75
2022/09/29 16:59:19;;;;;;;7.15;2.20;;;13.80;93.20;;;;;;6228013;23;20031;-75
2022/09/29 17:01:48;;;;;;;5.50;2.50;;;13.70;93.30;;;;;;6260034;22;20008;-75
2022/09/29 17:04:14;;;;;;;7.00;2.90;;;13.60;93.60;;;;;;6293923;22;20089;-75
2022/09/29 17:06:46;;;;;;;5.40;1.98;;;13.50;94.20;;;;;;6295190;22;19991;-74
2022/09/29 17:09:22;;;;;;;3.75;1.60;;;13.40;94.10;;;;;;6266369;22;20023;-78
2022/09/29 17:11:50;;;;;;;4.00;1.67;;;13.20;94.20;;;;;;6284785;22;20059;-76
2022/09/29 17:14:17;;;;;;;;;;;13.10;94.30;;;;;;6257881;22;19987;-76
2022/09/29 17:16:44;;;;;;;4.20;1.70;;;13.00;94.70;;;;;;6256847;22;19899;-76
2022/09/29 17:19:10;;;;;;;4.82;1.65;;;12.90;95.40;;;;;;6256622;22;20053;-74
2022/09/29 17:21:37;;;;;;;3.88;1.70;;;12.80;96.10;;;;;;6256594;22;20056;-76
2022/09/29 17:24:06;;;;;;;7.88;4.40;;;12.80;95.90;;;;;;6284039;22;20066;-75
2022/09/29 17:29:20;;;;;;;6.68;3.65;;;12.70;96.20;;;;;;6283877;22;20166;-78
2022/09/29 17:31:46;;;;;;;5.15;2.72;;;12.60;95.80;;;;;;6256270;22;19999;-76
2022/09/29 17:34:12;;;;;;;6.78;2.75;;;12.60;96.00;;;;;;6284618;22;20007;-76
2022/09/29 17:36:38;;;;;;;5.50;2.38;;;12.60;95.50;;;;;;6283784;22;20151;-74
2022/09/29 17:39:16;;;;;;;11.18;2.58;;;12.50;95.90;;;;;;6282863;22;20034;-75
2022/09/29 17:41:46;;;;;;;5.03;2.15;;;12.50;96.40;;;;;;6281637;22;20035;-75
2022/09/29 17:44:12;;;;;;;4.88;2.50;;;12.50;96.30;;;;;;6283457;22;20003;-76
2022/09/29 17:46:38;;;;;;;7.68;3.03;;;12.50;96.70;;;;;;6231197;22;20008;-76
2022/09/29 17:49:10;;;;;;;7.43;3.88;;;12.50;96.50;;;;;;6281951;22;20008;-77
2022/09/29 17:51:38;;;;;;;11.95;6.63;;;12.40;96.70;;;;;;6257064;22;20029;-76
2022/09/29 17:54:04;;;;;;;9.18;3.78;;;12.40;97.10;;;;;;6283968;22;19992;-77
2022/09/29 17:56:41;;;;;;;6.53;3.75;;;12.30;97.20;;;;;;6256985;22;20004;-76
2022/09/29 17:59:10;;;;;;;7.50;3.72;;;12.30;98.10;;;;;;6257223;22;20034;-76
2022/09/29 18:01:39;;;;;;;8.85;3.55;;;12.20;98.60;;;;;;6231230;22;20026;-77
2022/09/29 18:04:07;;;;;;;6.75;3.55;;;12.10;98.60;;;;;;6256614;22;20000;-77
2022/09/29 18:06:36;;;;;;;6.65;3.65;;;12.10;99.10;;;;;;6231178;22;20019;-78
2022/09/29 18:09:12;;;;;;;8.00;3.90;;;12.10;99.10;;;;;;6281909;22;20011;-77
2022/09/29 18:11:38;;;;;;;8.68;4.15;;;12.00;99.30;;;;;;6283597;22;20063;-77
2022/09/29 18:14:03;;;;;;;8.13;3.90;;;12.00;99.90;;;;;;6256603;22;20131;-76
2022/09/29 18:16:29;;;;;;;6.75;4.10;;;11.90;99.90;;;;;;6283523;22;20000;-76
2022/09/29 18:18:57;;;;;;;10.13;4.38;;;11.80;99.90;;;;;;6283021;22;20339;-79
2022/09/29 18:21:23;;;;;;;9.95;4.32;;;11.80;99.90;;;;;;6282526;22;20289;-76
2022/09/29 18:23:49;;;;;;;7.93;4.40;;;11.80;99.90;;;;;;6256292;22;20019;-77
2022/09/29 18:26:15;;;;;;;9.27;4.70;;;11.80;99.90;;;;;;6283986;22;20000;-77
2022/09/29 18:28:43;;;;;;;12.65;5.10;;;11.70;99.90;;;;;;6231176;22;20406;-77
2022/09/29 18:31:13;;;;;;;;;;;11.70;99.90;;;;;;6284250;22;20061;-75
2022/09/29 18:33:40;;;;;;;11.52;6.38;;;11.60;99.90;;;;;;6283161;22;19895;-76
2022/09/29 18:36:08;;;;;;;11.40;5.72;;;11.60;99.90;;;;;;6283239;22;20007;-76
2022/09/29 18:38:34;;;;;;;;;;;11.60;99.90;;;;;;6284298;22;19999;-75
2022/09/29 18:41:00;;;;;;;16.70;8.40;;;11.60;99.90;;;;;;6282901;22;19909;-76
2022/09/29 18:43:28;;;;;;;16.33;9.13;;;11.60;99.90;;;;;;6284631;22;20039;-76
2022/09/29 18:45:57;;;;;;;13.65;8.52;;;11.60;99.90;;;;;;6284265;22;20004;-75
2022/09/29 18:48:23;;;;;;;10.02;6.05;;;11.50;99.90;;;;;;6282935;22;20014;-74
2022/09/29 18:50:52;;;;;;;9.88;5.78;;;11.50;99.90;;;;;;6283924;22;20004;-74
2022/09/29 18:53:20;;;;;;;9.52;5.28;;;11.50;99.90;;;;;;6284620;22;20031;-74
2022/09/29 18:55:48;;;;;;;7.30;4.18;;;11.50;99.90;;;;;;6283573;22;20004;-75
2022/09/29 18:58:19;;;;;;;9.05;5.25;;;11.50;99.90;;;;;;6284408;22;20080;-75
2022/09/29 19:00:54;;;;;;;8.93;5.30;;;11.40;99.90;;;;;;6256912;22;20010;-76
2022/09/29 19:03:25;;;;;;;12.65;5.43;;;11.40;99.90;;;;;;6284123;22;20012;-75
2022/09/29 19:05:53;;;;;;;9.82;5.45;;;11.30;99.90;;;;;;6283737;22;20000;-75